Time;durP1;ratioP1;P1;durP2;ratioP2;P2;SDS_P1;SDS_P2;PMS_P1;PMS_P2;Temp;Humidity;BMP_temperature;BMP_pressure;BME280_temperature;BME280_humidity;BME280_pressure;Samples;Min_cycle;Max_cycle;Signal;HPM_P1;HPM_P2
2022/08/12 00:42:52;;;;;;;5.80;3.67;;;;;;;21.69;33.97;100857.47;10520195;28;20222;-78
2022/08/12 00:48:14;;;;;;;5.50;3.70;;;;;;;21.67;33.60;100864.81;10496346;28;20190;-78
2022/08/12 00:53:37;;;;;;;4.28;3.75;;;;;;;21.44;34.77;100862.19;10511317;28;20187;-78
2022/08/12 00:59:00;;;;;;;8.20;3.55;;;;;;;21.40;34.60;100869.94;10526706;28;20190;-78
2022/08/12 01:15:48;;;;;;;5.70;4.30;;;;;;;21.24;34.84;100869.34;10500535;28;20198;-78
2022/08/12 01:21:25;;;;;;;10.40;4.10;;;;;;;21.39;34.47;100871.97;10510530;28;20274;-79
2022/08/12 01:26:50;;;;;;;5.70;4.30;;;;;;;20.88;36.03;100874.75;10519386;28;20590;-78
2022/08/12 01:32:14;;;;;;;5.75;4.28;;;;;;;21.06;35.54;100875.78;10499106;28;20479;-78
2022/08/12 01:37:45;;;;;;;5.38;4.22;;;;;;;20.75;36.49;100871.31;10523877;28;20801;-78
2022/08/12 01:43:13;;;;;;;8.27;3.90;;;;;;;20.91;35.47;100864.56;10523297;28;20283;-78
2022/08/12 01:49:21;;;;;;;6.50;4.30;;;;;;;20.80;36.30;100864.44;10527086;28;20194;-78
2022/08/12 01:54:44;;;;;;;5.78;4.10;;;;;;;20.87;35.81;100857.97;10448235;28;20275;-79
2022/08/12 02:00:12;;;;;;;6.00;4.38;;;;;;;20.69;36.08;100854.88;10525300;28;20202;-78
2022/08/12 02:12:09;;;;;;;7.80;4.80;;;;;;;20.79;35.70;100869.34;10532333;28;20226;-78
2022/08/12 02:17:46;;;;;;;7.57;5.25;;;;;;;20.69;35.80;100867.16;10534407;28;20271;-78
2022/08/12 02:23:10;;;;;;;8.65;5.03;;;;;;;20.52;36.06;100869.81;10539504;28;20311;-78
2022/08/12 02:28:33;;;;;;;6.30;4.60;;;;;;;20.42;36.40;100875.03;10551140;28;20198;-77
2022/08/12 02:33:57;;;;;;;8.65;4.28;;;;;;;20.54;35.70;100876.00;10545534;28;20669;-78
2022/08/12 02:39:20;;;;;;;6.75;4.43;;;;;;;20.30;36.84;100875.28;10523627;28;20252;-78
2022/08/12 02:44:44;;;;;;;8.45;4.47;;;;;;;20.27;36.73;100873.22;10549588;28;20272;-78
2022/08/12 02:50:09;;;;;;;5.28;4.40;;;;;;;20.21;35.89;100880.47;10533645;28;20514;-78
2022/08/12 02:55:34;;;;;;;6.75;4.35;;;;;;;20.09;36.86;100883.56;10550161;28;20194;-78
2022/08/12 03:01:00;;;;;;;8.05;4.53;;;;;;;20.35;36.16;100874.94;10555311;28;20730;-78
2022/08/12 03:06:26;;;;;;;7.53;4.43;;;;;;;20.16;36.74;100875.09;10543434;28;20270;-78
2022/08/12 03:11:58;;;;;;;9.30;4.55;;;;;;;20.16;36.63;100872.22;10559297;28;20275;-78
2022/08/12 03:17:48;;;;;;;6.80;4.25;;;;;;;20.27;36.28;100870.34;10539531;28;20268;-82
2022/08/12 03:23:12;;;;;;;8.18;3.97;;;;;;;19.85;37.59;100881.16;10547112;28;20267;-77
2022/08/12 03:28:52;;;;;;;8.25;4.43;;;;;;;19.97;37.25;100873.19;10546056;28;20598;-77
2022/08/12 03:34:22;;;;;;;6.20;4.60;;;;;;;19.59;38.15;100876.28;10545913;28;20190;-78
2022/08/12 03:39:44;;;;;;;7.57;4.82;;;;;;;19.63;37.95;100878.00;10542552;28;20198;-78
2022/08/12 04:02:42;;;;;;;11.27;6.10;;;;;;;19.42;38.71;100880.47;10540424;28;20211;-78
2022/08/12 04:08:04;;;;;;;4.93;4.40;;;;;;;19.49;37.80;100888.34;10534993;28;20288;-77
2022/08/12 04:13:27;;;;;;;5.10;4.30;;;;;;;19.42;38.50;100880.47;10536411;28;20224;-75
2022/08/12 04:18:49;;;;;;;13.13;4.75;;;;;;;19.51;37.68;100885.94;10541252;28;20182;-75
2022/08/12 04:24:11;;;;;;;7.22;4.90;;;;;;;19.46;37.61;100883.38;10522532;28;20264;-79
2022/08/12 04:29:34;;;;;;;7.50;4.55;;;;;;;19.70;37.04;100880.94;10539134;28;20201;-78
2022/08/12 04:34:57;;;;;;;14.67;8.00;;;;;;;19.78;36.64;100878.22;10539559;28;21662;-77
2022/08/12 04:40:22;;;;;;;7.03;4.80;;;;;;;19.75;36.85;100888.38;10535635;28;20194;-76
2022/08/12 04:45:45;;;;;;;5.78;5.22;;;;;;;19.45;37.32;100876.84;10537324;28;20242;-76
2022/08/12 04:51:07;;;;;;;8.98;5.75;;;;;;;19.88;36.52;100878.38;10540687;28;20668;-77
2022/08/12 04:56:31;;;;;;;12.02;5.53;;;;;;;19.63;37.33;100885.75;10539879;28;20238;-77
2022/08/12 05:01:53;;;;;;;11.88;5.32;;;;;;;19.60;37.10;100884.47;10526732;28;20195;-76
2022/08/12 05:07:15;;;;;;;9.05;5.50;;;;;;;19.85;36.90;100886.88;10535413;28;20249;-81
2022/08/12 05:12:41;;;;;;;12.60;6.78;;;;;;;19.70;37.00;100886.66;10531981;28;20287;-76
2022/08/12 05:18:04;;;;;;;11.43;6.40;;;;;;;19.93;36.33;100880.88;10532652;28;20247;-76
2022/08/12 05:23:26;;;;;;;12.15;6.18;;;;;;;20.22;35.64;100870.69;10522588;28;20284;-77
2022/08/12 05:28:49;;;;;;;12.23;6.90;;;;;;;19.91;36.83;100877.59;10515801;28;20590;-77
2022/08/12 05:34:14;;;;;;;12.02;5.72;;;;;;;19.92;35.47;100873.50;10518712;28;20198;-76
2022/08/12 05:39:36;;;;;;;12.50;5.85;;;;;;;20.27;35.91;100870.34;10522752;28;20279;-78
2022/08/12 05:44:59;;;;;;;11.70;5.75;;;;;;;20.42;35.95;100880.78;10541747;28;20297;-77
2022/08/12 05:50:21;;;;;;;11.38;5.60;;;;;;;20.45;35.38;100885.69;10545988;28;20194;-78
2022/08/12 05:55:43;;;;;;;16.13;6.25;;;;;;;20.62;35.60;100886.31;10545030;28;20179;-77
2022/08/12 06:01:06;;;;;;;15.32;6.20;;;;;;;20.79;35.25;100894.31;10527174;28;20195;-77
2022/08/12 06:06:28;;;;;;;21.27;6.50;;;;;;;20.74;36.38;100891.75;10547548;28;20270;-77
2022/08/12 06:11:50;;;;;;;22.77;6.63;;;;;;;20.73;36.38;100888.06;10602013;27;20230;-78
2022/08/12 06:17:12;;;;;;;17.77;5.88;;;;;;;20.83;36.41;100883.69;10572649;27;20197;-78
2022/08/12 06:22:34;;;;;;;14.40;6.32;;;;;;;21.00;36.89;100885.94;10569426;27;20193;-78
2022/08/12 06:27:58;;;;;;;19.92;6.30;;;;;;;21.24;36.12;100886.56;10582601;27;20202;-79
2022/08/12 06:33:20;;;;;;;40.13;7.47;;;;;;;21.25;36.16;100893.94;10586444;27;20257;-79
2022/08/12 06:38:43;;;;;;;12.93;5.82;;;;;;;21.41;37.12;100894.53;10575107;27;20193;-78
2022/08/12 06:44:07;;;;;;;16.45;5.47;;;;;;;21.66;35.47;100898.41;10580552;27;20245;-78
2022/08/12 06:49:35;;;;;;;14.50;5.85;;;;;;;21.92;35.73;100893.69;10582488;27;20197;-77
2022/08/12 06:54:58;;;;;;;14.40;5.32;;;;;;;21.88;35.40;100887.06;10577499;27;20271;-78
2022/08/12 07:00:25;;;;;;;10.45;5.18;;;;;;;22.04;35.46;100879.84;10552366;27;20594;-78
2022/08/12 07:05:47;;;;;;;8.32;4.47;;;;;;;22.13;34.07;100879.47;10595575;27;20311;-78
2022/08/12 07:11:12;;;;;;;12.68;3.90;;;;;;;22.42;32.78;100887.00;10560888;27;20218;-78
2022/08/12 07:16:55;;;;;;;7.68;3.03;;;;;;;22.37;30.69;100890.28;10570946;27;20243;-78
2022/08/12 07:22:17;;;;;;;6.38;3.13;;;;;;;22.97;29.34;100883.91;10577702;27;20667;-78
2022/08/12 07:27:41;;;;;;;8.13;3.15;;;;;;;22.78;30.46;100890.00;10617526;27;20266;-78
2022/08/12 07:33:04;;;;;;;7.25;3.50;;;;;;;23.42;29.10;100887.28;10620943;27;20197;-78
2022/08/12 07:38:45;;;;;;;5.55;3.33;;;;;;;23.30;29.32;100894.22;10568470;27;20186;-78
2022/08/12 07:44:07;;;;;;;11.70;2.90;;;;;;;23.42;29.04;100893.03;10581626;27;20453;-79
2022/08/12 07:49:29;;;;;;;9.38;3.75;;;;;;;23.78;27.69;100893.84;10576474;27;20242;-83
2022/08/12 07:54:52;;;;;;;7.72;3.10;;;;;;;24.53;28.05;100892.41;10564749;27;20285;-78
2022/08/12 08:00:14;;;;;;;7.55;2.90;;;;;;;24.90;27.43;100891.00;10570168;28;20243;-79
2022/08/12 08:05:45;;;;;;;5.07;3.15;;;;;;;24.72;27.08;100890.31;10574191;27;20213;-78
2022/08/12 08:16:47;;;;;;;4.97;2.58;;;;;;;25.69;26.26;100886.28;10591251;27;20182;-78
2022/08/12 08:22:10;;;;;;;8.77;2.92;;;;;;;25.78;24.39;100886.63;10558524;27;20659;-79
2022/08/12 08:27:45;;;;;;;4.88;2.15;;;;;;;25.87;24.76;100897.69;10563135;28;20631;-78
2022/08/12 08:33:09;;;;;;;6.93;2.30;;;;;;;25.24;24.57;100896.97;10562368;28;20281;-78
2022/08/12 08:38:31;;;;;;;2.65;1.70;;;;;;;24.93;24.25;100893.03;10558278;27;20233;-78
2022/08/12 08:43:55;;;;;;;4.78;1.83;;;;;;;25.38;23.63;100890.25;10560034;28;20237;-79
2022/08/12 08:49:17;;;;;;;3.42;1.90;;;;;;;25.61;23.10;100881.84;10577769;27;20341;-79
2022/08/12 08:54:39;;;;;;;5.80;1.80;;;;;;;25.54;23.96;100882.69;10563350;28;20247;-78
2022/08/12 09:00:03;;;;;;;2.28;1.60;;;;;;;25.41;23.89;100883.66;10576137;28;20286;-78
2022/08/12 09:05:26;;;;;;;5.28;2.00;;;;;;;25.81;23.71;100882.88;10545594;27;20617;-78
2022/08/12 09:10:48;;;;;;;7.47;1.75;;;;;;;26.14;23.52;100881.31;10559863;28;20589;-78
2022/08/12 09:16:10;;;;;;;2.83;1.30;;;;;;;26.18;21.40;100870.50;10556934;28;20570;-78
2022/08/12 09:21:32;;;;;;;4.55;1.27;;;;;;;25.99;23.01;100874.88;10553978;28;20225;-78
2022/08/12 09:26:54;;;;;;;6.43;1.67;;;;;;;26.21;22.21;100865.94;10570159;28;20244;-80
2022/08/12 09:32:17;;;;;;;3.13;1.58;;;;;;;26.34;22.02;100867.03;10570673;28;20243;-79
2022/08/12 09:37:40;;;;;;;4.00;1.05;;;;;;;26.74;22.05;100863.19;10557949;28;20301;-78
2022/08/12 09:48:43;;;;;;;4.85;1.73;;;;;;;26.67;21.10;100851.72;10574756;28;20225;-78
2022/08/12 09:54:05;;;;;;;5.70;1.33;;;;;;;26.98;21.36;100843.84;10573436;28;20543;-82
2022/08/12 09:59:27;;;;;;;1.70;1.27;;;;;;;26.85;20.14;100844.88;10545699;28;20290;-78
2022/08/12 10:04:49;;;;;;;3.22;1.38;;;;;;;26.86;21.58;100834.94;10573775;28;20282;-79
2022/08/12 10:10:11;;;;;;;2.45;1.73;;;;;;;27.46;21.11;100840.56;10541113;28;20221;-79
2022/08/12 10:15:33;;;;;;;3.15;1.48;;;;;;;26.61;21.23;100846.84;10571525;28;20217;-79
2022/08/12 10:20:58;;;;;;;4.25;1.67;;;;;;;27.06;20.99;100835.84;10557008;28;20239;-83
2022/08/12 10:32:02;;;;;;;3.58;1.20;;;;;;;27.37;20.21;100808.50;10539078;28;20243;-80
2022/08/12 10:37:25;;;;;;;4.28;1.52;;;;;;;27.58;19.90;100803.56;10530476;28;20621;-79
2022/08/12 10:48:27;;;;;;;3.05;1.10;;;;;;;27.39;20.10;100790.69;10576593;27;20318;-79
2022/08/12 10:53:50;;;;;;;2.85;1.30;;;;;;;27.19;19.81;100781.91;10579622;27;20298;-79
2022/08/12 10:59:12;;;;;;;3.60;1.38;;;;;;;27.94;20.32;100781.34;10551484;27;20285;-78
2022/08/12 11:04:34;;;;;;;2.63;1.33;;;;;;;27.86;20.56;100771.16;10556801;27;20593;-84
2022/08/12 11:09:57;;;;;;;3.08;1.40;;;;;;;27.74;19.83;100763.09;10563320;27;20310;-79
2022/08/12 11:15:20;;;;;;;2.90;1.35;;;;;;;28.17;19.27;100758.06;10560580;28;20254;-78
2022/08/12 11:20:42;;;;;;;1.33;1.10;;;;;;;29.04;17.61;100740.28;10572929;27;20666;-82
2022/08/12 11:26:05;;;;;;;4.40;1.40;;;;;;;28.30;17.93;100746.66;10560161;28;20237;-80
2022/08/12 11:31:27;;;;;;;1.45;1.10;;;;;;;28.94;16.70;100738.50;10558644;28;20233;-78
2022/08/12 11:36:55;;;;;;;1.85;1.20;;;;;;;29.02;17.04;100731.22;10558018;27;20229;-78
2022/08/12 11:42:17;;;;;;;2.47;0.93;;;;;;;29.59;15.54;100732.59;10577770;28;20229;-79
2022/08/12 11:47:39;;;;;;;1.25;1.00;;;;;;;29.45;16.95;100734.63;10555920;27;20256;-79
2022/08/12 11:53:01;;;;;;;1.00;0.68;;;;;;;29.80;16.03;100729.09;10553894;27;20229;-79
2022/08/12 11:58:23;;;;;;;4.75;1.02;;;;;;;29.56;15.45;100714.81;10545101;28;20579;-78
2022/08/12 12:03:45;;;;;;;1.88;1.00;;;;;;;29.86;15.66;100706.94;10544383;28;20251;-79
2022/08/12 12:09:07;;;;;;;4.70;1.30;;;;;;;30.15;15.63;100699.00;10558096;27;20262;-79
2022/08/12 12:14:30;;;;;;;2.88;0.68;;;;;;;30.47;15.11;100691.31;10556333;27;20255;-78
2022/08/12 12:19:53;;;;;;;2.80;1.05;;;;;;;30.56;15.46;100694.38;10571692;27;20229;-78
2022/08/12 12:25:15;;;;;;;3.67;1.00;;;;;;;29.94;15.17;100693.81;10550414;28;20237;-78
2022/08/12 12:30:39;;;;;;;5.35;1.15;;;;;;;30.36;15.28;100693.75;10568296;27;20606;-78
2022/08/12 12:36:01;;;;;;;4.68;1.10;;;;;;;29.38;17.01;100690.47;10558352;28;20229;-79
2022/08/12 12:41:23;;;;;;;3.53;1.17;;;;;;;29.48;16.99;100695.97;10543413;28;20609;-80
2022/08/12 12:46:45;;;;;;;1.38;0.80;;;;;;;29.68;15.96;100689.19;10573525;27;20248;-79
2022/08/12 12:52:07;;;;;;;2.45;0.93;;;;;;;30.32;15.48;100661.06;10573516;28;20237;-78
2022/08/12 12:57:37;;;;;;;3.78;0.85;;;;;;;29.29;16.54;100667.06;10540612;28;20214;-79
2022/08/12 13:02:59;;;;;;;1.95;1.20;;;;;;;29.63;15.95;100660.75;10572095;27;20278;-80
2022/08/12 13:08:25;;;;;;;4.60;1.10;;;;;;;29.75;15.94;100662.84;10577276;27;20244;-79
2022/08/12 13:13:52;;;;;;;4.10;0.77;;;;;;;31.12;14.43;100650.03;10568583;28;20216;-78
2022/08/12 13:19:15;;;;;;;3.67;0.95;;;;;;;30.46;15.01;100648.97;10579794;28;20471;-78
2022/08/12 13:24:39;;;;;;;3.03;1.30;;;;;;;30.47;15.18;100648.50;10550411;28;20206;-79
2022/08/12 13:30:03;;;;;;;2.20;0.82;;;;;;;30.94;15.66;100641.94;10581157;28;20243;-79
2022/08/12 13:35:29;;;;;;;3.20;1.30;;;;;;;30.32;15.61;100650.25;10554964;28;20190;-79
2022/08/12 13:40:52;;;;;;;3.38;0.80;;;;;;;30.42;16.28;100649.09;10555160;28;20219;-79
2022/08/12 13:46:14;;;;;;;2.53;0.98;;;;;;;29.98;15.82;100648.00;10581417;28;20463;-79
2022/08/12 13:51:36;;;;;;;4.78;1.10;;;;;;;30.22;15.74;100639.78;10561349;28;20202;-79
2022/08/12 13:56:59;;;;;;;7.95;0.95;;;;;;;31.26;16.01;100629.13;10569881;28;20326;-80
2022/08/12 14:02:21;;;;;;;3.13;1.25;;;;;;;30.36;16.18;100630.59;10580185;28;20202;-89
2022/08/12 14:07:52;;;;;;;4.50;0.90;;;;;;;30.12;15.83;100621.44;10561367;28;20245;-78
2022/08/12 14:13:16;;;;;;;7.13;1.13;;;;;;;30.23;15.97;100624.78;10573693;28;20253;-78
2022/08/12 14:18:40;;;;;;;2.78;1.33;;;;;;;30.37;15.54;100613.97;10561128;28;20239;-78
2022/08/12 14:24:03;;;;;;;3.72;1.10;;;;;;;30.72;16.37;100614.84;10584427;28;20513;-78
2022/08/12 14:29:25;;;;;;;5.72;1.10;;;;;;;30.25;15.94;100606.88;10540574;28;20278;-78
2022/08/12 14:34:50;;;;;;;5.72;1.20;;;;;;;29.80;17.19;100613.69;10566040;28;20189;-79
2022/08/12 14:40:14;;;;;;;3.88;0.95;;;;;;;29.85;15.30;100610.22;10583211;28;20189;-79
2022/08/12 14:45:36;;;;;;;2.10;0.90;;;;;;;30.52;14.94;100598.47;10590856;27;20255;-81
2022/08/12 14:50:59;;;;;;;1.67;0.80;;;;;;;30.04;14.71;100604.66;10566731;27;20190;-84
2022/08/12 14:56:23;;;;;;;4.00;0.75;;;;;;;29.30;14.65;100620.16;10554354;27;20298;-78
2022/08/12 15:01:46;;;;;;;3.63;0.90;;;;;;;29.43;14.69;100611.50;10560506;27;20250;-78
2022/08/12 15:07:08;;;;;;;3.20;0.90;;;;;;;29.39;15.47;100594.16;10564311;28;20614;-84
2022/08/12 15:12:31;;;;;;;3.20;0.88;;;;;;;29.54;15.26;100606.97;10586114;28;20571;-78
2022/08/12 15:18:01;;;;;;;3.00;0.95;;;;;;;28.43;17.07;100619.19;10574772;28;20194;-81
2022/08/12 15:23:29;;;;;;;1.08;0.80;;;;;;;29.82;15.67;100598.69;10563019;28;20255;-82
2022/08/12 15:28:53;;;;;;;3.17;1.13;;;;;;;29.40;15.49;100578.38;10548510;28;20246;-83
2022/08/12 15:34:16;;;;;;;3.15;1.17;;;;;;;29.31;16.18;100581.16;10540687;27;20416;-78
2022/08/12 15:39:38;;;;;;;4.68;0.98;;;;;;;30.19;14.74;100577.56;10556622;28;20190;-78
2022/08/12 15:45:01;;;;;;;4.50;1.25;;;;;;;30.77;13.62;100588.06;10577412;28;20190;-86
2022/08/12 15:50:25;;;;;;;2.80;0.82;;;;;;;30.17;15.68;100579.34;10542779;28;20243;-83
2022/08/12 15:55:49;;;;;;;2.55;1.02;;;;;;;30.79;15.21;100577.59;10547526;27;20266;-79
2022/08/12 16:01:15;;;;;;;6.80;1.20;;;;;;;29.66;15.90;100575.53;10534208;28;20197;-82
2022/08/12 16:06:37;;;;;;;6.18;1.33;;;;;;;29.72;15.32;100579.53;10550686;27;20321;-78
2022/08/12 16:12:02;;;;;;;1.30;0.70;;;;;;;29.66;15.13;100575.53;10545275;27;20254;-80
2022/08/12 16:17:25;;;;;;;1.70;0.98;;;;;;;29.63;15.14;100570.69;10550564;27;20222;-77
2022/08/12 16:22:53;;;;;;;2.88;0.65;;;;;;;29.96;15.95;100574.19;10537663;27;20226;-82
2022/08/12 16:28:15;;;;;;;4.22;0.90;;;;;;;29.52;15.73;100568.09;10545791;27;20249;-84
2022/08/12 16:33:42;;;;;;;4.57;1.45;;;;;;;29.79;16.06;100564.75;10556822;27;20224;-78
2022/08/12 16:39:04;;;;;;;3.17;0.93;;;;;;;29.27;16.18;100565.09;10577937;27;20217;-82
2022/08/12 16:44:28;;;;;;;6.10;1.20;;;;;;;29.53;16.40;100555.97;10550461;27;20206;-77
2022/08/12 16:49:51;;;;;;;2.83;2.40;;;;;;;29.35;17.14;100552.81;10556794;28;20245;-84
2022/08/12 16:55:14;;;;;;;5.07;0.95;;;;;;;29.39;16.78;100544.00;10546089;27;20523;-85
2022/08/12 17:00:37;;;;;;;2.55;1.30;;;;;;;29.84;15.95;100538.03;10517561;27;21107;-87
2022/08/12 17:06:00;;;;;;;4.78;1.30;;;;;;;29.38;16.83;100534.50;10551124;27;20225;-78
2022/08/12 17:11:23;;;;;;;1.98;1.13;;;;;;;29.32;16.54;100542.13;10528557;28;20301;-85
2022/08/12 17:16:47;;;;;;;3.47;1.35;;;;;;;28.42;17.48;100542.16;10546221;27;20243;-77
2022/08/12 17:22:11;;;;;;;8.68;2.90;;;;;;;29.58;17.12;100530.56;10557637;27;20198;-81
2022/08/12 17:27:45;;;;;;;4.00;1.58;;;;;;;28.94;17.73;100527.47;10561748;28;20217;-77
2022/08/12 17:33:13;;;;;;;5.18;1.10;;;;;;;29.83;16.54;100527.69;10555203;28;20272;-82
2022/08/12 17:38:35;;;;;;;2.33;1.20;;;;;;;28.92;17.31;100532.09;10535437;28;20219;-82
2022/08/12 17:43:58;;;;;;;2.15;0.90;;;;;;;28.99;16.32;100537.72;10530231;28;20278;-82
2022/08/12 17:49:22;;;;;;;3.83;1.20;;;;;;;29.11;17.04;100528.25;10547614;28;20294;-84
2022/08/12 17:54:44;;;;;;;3.28;1.00;;;;;;;29.24;16.22;100537.81;10535606;28;20222;-78
2022/08/12 18:00:14;;;;;;;4.07;1.52;;;;;;;29.02;17.48;100536.78;10554458;27;20251;-79
2022/08/12 18:05:37;;;;;;;1.95;1.52;;;;;;;28.31;18.60;100547.44;10534744;27;20259;-86
2022/08/12 18:16:44;;;;;;;3.25;1.50;;;;;;;28.24;17.62;100560.00;10548515;27;20217;-79
2022/08/12 18:22:06;;;;;;;3.95;0.82;;;;;;;27.97;18.16;100563.13;10563129;27;20217;-81
2022/08/12 18:27:28;;;;;;;1.45;0.77;;;;;;;27.97;18.62;100560.25;10567469;27;20239;-79
2022/08/12 18:32:51;;;;;;;3.78;1.38;;;;;;;27.82;18.13;100567.66;10581786;27;20247;-77
2022/08/12 18:38:17;;;;;;;3.03;1.33;;;;;;;27.47;18.62;100570.06;10587354;27;20194;-77
2022/08/12 18:43:40;;;;;;;3.20;1.20;;;;;;;27.14;19.21;100574.06;10595715;27;20189;-79
2022/08/12 18:49:02;;;;;;;2.80;1.08;;;;;;;27.37;18.80;100573.19;10574038;27;20245;-77
2022/08/12 18:54:27;;;;;;;4.75;1.65;;;;;;;26.72;19.97;100573.63;10588223;27;20194;-77
2022/08/12 18:59:50;;;;;;;2.95;1.10;;;;;;;26.82;19.07;100579.66;10564251;27;20259;-77
2022/08/12 19:05:13;;;;;;;2.38;1.40;;;;;;;26.84;19.38;100588.72;10564265;27;20193;-78
2022/08/12 19:10:38;;;;;;;1.45;1.08;;;;;;;26.36;20.18;100587.09;10563781;27;20266;-77
2022/08/12 19:16:08;;;;;;;4.85;1.05;;;;;;;26.15;20.72;100593.19;10571617;27;20198;-79
2022/08/12 19:21:31;;;;;;;5.32;0.77;;;;;;;26.23;20.65;100594.72;10572715;27;20193;-78
2022/08/12 19:26:55;;;;;;;3.67;0.90;;;;;;;25.82;21.20;100597.81;10558621;27;20214;-79
2022/08/12 19:32:20;;;;;;;4.22;0.90;;;;;;;25.76;21.27;100594.59;10582811;27;20194;-79
2022/08/12 19:37:43;;;;;;;2.20;0.77;;;;;;;25.80;21.07;100600.31;10568266;27;20194;-89
2022/08/12 19:43:09;;;;;;;20.40;15.88;;;;;;;25.80;21.06;100606.91;10588993;27;20536;-78
2022/08/12 19:48:31;;;;;;;2.70;0.80;;;;;;;25.22;21.93;100608.88;10564774;27;20241;-80
2022/08/12 19:53:54;;;;;;;2.03;0.80;;;;;;;25.47;21.83;100605.72;10567589;27;20294;-79
2022/08/12 19:59:34;;;;;;;2.42;0.82;;;;;;;25.41;21.78;100606.59;10565326;27;20186;-79
2022/08/12 20:05:03;;;;;;;1.35;0.73;;;;;;;26.33;20.90;100611.09;10554558;27;20580;-77
2022/08/12 20:10:30;;;;;;;4.13;0.90;;;;;;;25.86;21.73;100616.75;10562141;27;20645;-78
2022/08/12 20:15:52;;;;;;;6.05;1.10;;;;;;;26.05;20.88;100610.25;10541685;27;20214;-78
2022/08/12 20:21:15;;;;;;;3.72;1.10;;;;;;;25.89;22.17;100624.53;10547989;27;20221;-78
2022/08/12 20:26:41;;;;;;;3.42;1.20;;;;;;;25.81;22.02;100620.09;10525258;27;20267;-78
2022/08/12 20:32:05;;;;;;;5.68;1.63;;;;;;;25.90;21.95;100620.38;10546336;27;20220;-78
2022/08/12 20:37:30;;;;;;;4.90;1.13;;;;;;;25.73;22.07;100624.31;10568345;27;20276;-78
2022/08/12 20:42:52;;;;;;;6.00;1.63;;;;;;;25.75;22.65;100623.91;10566164;28;20182;-78
2022/08/12 20:48:14;;;;;;;7.30;2.00;;;;;;;25.63;22.09;100626.09;10587203;27;20232;-84
2022/08/12 20:53:41;;;;;;;2.47;1.65;;;;;;;25.52;23.14;100625.41;10592132;27;20193;-78
2022/08/12 20:59:09;;;;;;;8.00;1.63;;;;;;;25.84;23.11;100639.47;10585822;27;20221;-78
2022/08/12 21:10:12;;;;;;;4.15;1.23;;;;;;;25.34;23.24;100637.19;10574361;27;20222;-83
2022/08/12 21:15:34;;;;;;;3.88;1.30;;;;;;;25.18;24.59;100631.19;10584670;28;20190;-78
2022/08/12 21:20:57;;;;;;;3.65;1.25;;;;;;;24.84;24.18;100638.97;10556639;28;20186;-78
2022/08/12 21:26:21;;;;;;;3.25;1.10;;;;;;;24.45;24.82;100648.75;10554015;27;20230;-77
2022/08/12 21:31:45;;;;;;;2.25;1.00;;;;;;;24.66;23.65;100642.81;10554145;28;20194;-78
2022/08/12 21:37:07;;;;;;;1.70;1.17;;;;;;;24.57;24.01;100651.13;10594505;28;20250;-78
2022/08/12 21:42:29;;;;;;;3.67;1.10;;;;;;;24.50;24.48;100656.13;10627244;28;20806;-78
2022/08/12 21:47:51;;;;;;;3.70;1.40;;;;;;;24.00;25.48;100667.16;10574290;28;20209;-79
2022/08/12 21:53:14;;;;;;;3.45;1.20;;;;;;;24.37;25.05;100664.44;10577868;28;20215;-78
2022/08/12 21:58:37;;;;;;;2.92;1.20;;;;;;;24.30;24.65;100659.56;10555783;28;20256;-78
2022/08/12 22:09:40;;;;;;;2.17;1.00;;;;;;;23.82;25.11;100662.28;10572010;28;20690;-78
2022/08/12 22:15:03;;;;;;;5.00;0.95;;;;;;;24.23;25.06;100661.66;10565769;28;20202;-78
2022/08/12 22:20:26;;;;;;;3.20;1.10;;;;;;;24.15;24.84;100662.94;10556164;28;20193;-78
2022/08/12 22:25:49;;;;;;;2.70;1.10;;;;;;;24.05;24.57;100663.84;10556546;28;20235;-77
2022/08/12 22:31:12;;;;;;;3.15;1.00;;;;;;;24.23;24.57;100670.31;10522072;28;20214;-78
2022/08/12 22:36:34;;;;;;;3.42;1.15;;;;;;;24.05;24.75;100666.72;10556596;28;20193;-78
2022/08/12 22:47:42;;;;;;;1.10;0.70;;;;;;;23.99;24.86;100654.81;10589667;27;20209;-77
2022/08/12 22:53:13;;;;;;;1.40;0.80;;;;;;;24.08;23.95;100655.16;10581237;27;20205;-78
2022/08/12 22:58:35;;;;;;;2.58;0.95;;;;;;;23.99;24.57;100660.56;10564711;28;20699;-79
2022/08/12 23:03:59;;;;;;;2.08;0.80;;;;;;;23.97;24.28;100657.28;10560401;28;20662;-79
2022/08/12 23:09:25;;;;;;;8.55;0.95;;;;;;;23.69;24.86;100658.25;10585990;27;20242;-78
2022/08/12 23:14:47;;;;;;;3.63;0.70;;;;;;;23.64;24.99;100660.72;10600080;27;20194;-79
2022/08/12 23:20:09;;;;;;;3.33;0.98;;;;;;;23.88;25.31;100660.63;10561431;28;20178;-79
2022/08/12 23:25:32;;;;;;;0.88;0.68;;;;;;;23.92;25.07;100660.63;10574918;28;20197;-79
2022/08/12 23:30:57;;;;;;;1.40;0.70;;;;;;;23.55;25.50;100656.22;10574561;28;20205;-79
2022/08/12 23:36:21;;;;;;;4.07;0.68;;;;;;;23.26;26.07;100660.47;10522040;28;20546;-79
2022/08/12 23:41:48;;;;;;;3.15;1.08;;;;;;;23.15;26.60;100663.38;10528822;28;20256;-79
2022/08/12 23:47:11;;;;;;;4.03;1.38;;;;;;;22.99;27.03;100659.25;10588598;28;20194;-79
2022/08/12 23:52:33;;;;;;;7.03;2.10;;;;;;;23.39;26.32;100655.09;10574207;28;20189;-78
2022/08/12 23:57:58;;;;;;;5.22;2.22;;;;;;;22.97;26.79;100661.72;10559632;28;20189;-78
